sensor_id;sensor_type;location;lat;lon;timestamp;pressure;altitude;pressure_sealevel;temperature;humidity
12879;BME280;20617;49.476;10.986;2022-08-21T00:01:30;98239.97;;;19.78;77.56
12879;BME280;20617;49.476;10.986;2022-08-21T00:03:35;98228.00;;;19.74;77.60
12879;BME280;20617;49.476;10.986;2022-08-21T00:05:42;98231.63;;;19.73;77.46
12879;BME280;20617;49.476;10.986;2022-08-21T00:07:48;98228.84;;;19.74;77.44
12879;BME280;20617;49.476;10.986;2022-08-21T00:09:53;98227.41;;;19.70;77.75
12879;BME280;20617;49.476;10.986;2022-08-21T00:11:58;98234.59;;;19.68;77.74
12879;BME280;20617;49.476;10.986;2022-08-21T00:14:05;98229.31;;;19.68;77.99
12879;BME280;20617;49.476;10.986;2022-08-21T00:16:11;98229.47;;;19.66;78.06
12879;BME280;20617;49.476;10.986;2022-08-21T00:18:19;98224.88;;;19.68;77.84
12879;BME280;20617;49.476;10.986;2022-08-21T00:20:27;98225.59;;;19.71;77.71
12879;BME280;20617;49.476;10.986;2022-08-21T00:22:32;98221.75;;;19.75;77.78
12879;BME280;20617;49.476;10.986;2022-08-21T00:24:37;98219.09;;;19.75;77.28
12879;BME280;20617;49.476;10.986;2022-08-21T00:26:42;98221.03;;;19.73;77.96
12879;BME280;20617;49.476;10.986;2022-08-21T00:28:47;98229.47;;;19.66;78.02
12879;BME280;20617;49.476;10.986;2022-08-21T00:30:52;98229.78;;;19.62;78.28
12879;BME280;20617;49.476;10.986;2022-08-21T00:32:58;98225.34;;;19.62;77.70
12879;BME280;20617;49.476;10.986;2022-08-21T00:35:09;98212.97;;;19.63;77.89
12879;BME280;20617;49.476;10.986;2022-08-21T00:37:14;98218.50;;;19.60;78.41
12879;BME280;20617;49.476;10.986;2022-08-21T00:39:19;98207.47;;;19.55;78.12
12879;BME280;20617;49.476;10.986;2022-08-21T00:41:26;98212.53;;;19.47;78.73
12879;BME280;20617;49.476;10.986;2022-08-21T00:43:39;98215.16;;;19.47;78.60
12879;BME280;20617;49.476;10.986;2022-08-21T00:45:44;98220.56;;;19.45;78.71
12879;BME280;20617;49.476;10.986;2022-08-21T00:47:50;98227.75;;;19.43;78.87
12879;BME280;20617;49.476;10.986;2022-08-21T00:49:57;98227.75;;;19.43;79.49
12879;BME280;20617;49.476;10.986;2022-08-21T00:52:06;98230.19;;;19.35;79.22
12879;BME280;20617;49.476;10.986;2022-08-21T00:54:12;98220.69;;;19.21;79.80
12879;BME280;20617;49.476;10.986;2022-08-21T00:56:20;98225.25;;;19.19;80.27
12879;BME280;20617;49.476;10.986;2022-08-21T00:58:27;98228.47;;;19.22;79.80
12879;BME280;20617;49.476;10.986;2022-08-21T01:00:36;98234.63;;;19.23;80.19
12879;BME280;20617;49.476;10.986;2022-08-21T01:02:41;98237.09;;;19.13;80.11
12879;BME280;20617;49.476;10.986;2022-08-21T01:04:47;98226.09;;;19.08;80.47
12879;BME280;20617;49.476;10.986;2022-08-21T01:06:52;98224.28;;;19.09;80.39
12879;BME280;20617;49.476;10.986;2022-08-21T01:09:00;98223.91;;;19.13;80.17
12879;BME280;20617;49.476;10.986;2022-08-21T01:11:05;98232.22;;;19.20;79.85
12879;BME280;20617;49.476;10.986;2022-08-21T01:13:11;98228.59;;;19.21;79.64
12879;BME280;20617;49.476;10.986;2022-08-21T01:15:22;98225.59;;;19.26;79.25
12879;BME280;20617;49.476;10.986;2022-08-21T01:17:27;98224.06;;;19.23;79.09
12879;BME280;20617;49.476;10.986;2022-08-21T01:19:33;98226.31;;;19.16;78.99
12879;BME280;20617;49.476;10.986;2022-08-21T01:21:40;98228.00;;;19.17;78.71
12879;BME280;20617;49.476;10.986;2022-08-21T01:23:48;98228.72;;;19.19;78.56
12879;BME280;20617;49.476;10.986;2022-08-21T01:25:54;98228.72;;;19.19;78.58
12879;BME280;20617;49.476;10.986;2022-08-21T01:28:03;98229.19;;;19.13;78.75
12879;BME280;20617;49.476;10.986;2022-08-21T01:30:12;98226.19;;;19.07;78.74
12879;BME280;20617;49.476;10.986;2022-08-21T01:32:19;98229.66;;;19.07;79.15
12879;BME280;20617;49.476;10.986;2022-08-21T01:34:24;98224.28;;;19.09;78.88
12879;BME280;20617;49.476;10.986;2022-08-21T01:36:29;98228.25;;;19.03;79.17
12879;BME280;20617;49.476;10.986;2022-08-21T01:38:37;98227.75;;;18.98;79.71
12879;BME280;20617;49.476;10.986;2022-08-21T01:40:42;98226.19;;;18.95;79.54
12879;BME280;20617;49.476;10.986;2022-08-21T01:42:47;98221.13;;;18.92;79.78
12879;BME280;20617;49.476;10.986;2022-08-21T01:44:51;98227.38;;;18.91;79.56
12879;BME280;20617;49.476;10.986;2022-08-21T01:46:57;98216.69;;;18.93;79.35
12879;BME280;20617;49.476;10.986;2022-08-21T01:49:03;98223.53;;;18.95;79.70
12879;BME280;20617;49.476;10.986;2022-08-21T01:51:08;98217.78;;;19.02;79.55
12879;BME280;20617;49.476;10.986;2022-08-21T01:53:13;98220.78;;;18.97;79.49
12879;BME280;20617;49.476;10.986;2022-08-21T01:55:31;98223.44;;;18.97;79.45
12879;BME280;20617;49.476;10.986;2022-08-21T01:57:36;98218.84;;;18.99;79.43
12879;BME280;20617;49.476;10.986;2022-08-21T01:59:41;98220.19;;;19.05;79.14
12879;BME280;20617;49.476;10.986;2022-08-21T02:01:46;98219.13;;;19.07;79.01
12879;BME280;20617;49.476;10.986;2022-08-21T02:03:51;98222.47;;;19.09;78.71
12879;BME280;20617;49.476;10.986;2022-08-21T02:05:56;98219.59;;;19.12;79.16
12879;BME280;20617;49.476;10.986;2022-08-21T02:08:02;98215.75;;;19.16;78.72
12879;BME280;20617;49.476;10.986;2022-08-21T02:10:08;98209.31;;;19.20;78.79
12879;BME280;20617;49.476;10.986;2022-08-21T02:12:16;98209.41;;;19.19;78.96
12879;BME280;20617;49.476;10.986;2022-08-21T02:14:23;98204.97;;;19.19;78.50
12879;BME280;20617;49.476;10.986;2022-08-21T02:16:34;98202.94;;;19.23;78.48
12879;BME280;20617;49.476;10.986;2022-08-21T02:18:39;98204.47;;;19.26;78.45
12879;BME280;20617;49.476;10.986;2022-08-21T02:20:46;98198.13;;;19.28;78.05
12879;BME280;20617;49.476;10.986;2022-08-21T02:22:57;98196.34;;;19.29;78.02
12879;BME280;20617;49.476;10.986;2022-08-21T02:25:03;98208.91;;;19.25;78.26
12879;BME280;20617;49.476;10.986;2022-08-21T02:27:08;98210.03;;;19.11;79.01
12879;BME280;20617;49.476;10.986;2022-08-21T02:29:16;98216.47;;;18.96;79.41
12879;BME280;20617;49.476;10.986;2022-08-21T02:31:21;98210.69;;;18.80;80.41
12879;BME280;20617;49.476;10.986;2022-08-21T02:33:26;98216.91;;;18.78;80.44
12879;BME280;20617;49.476;10.986;2022-08-21T02:35:31;98218.72;;;18.78;80.75
12879;BME280;20617;49.476;10.986;2022-08-21T02:37:43;98215.84;;;18.81;81.10
12879;BME280;20617;49.476;10.986;2022-08-21T02:39:48;98217.41;;;18.84;80.91
12879;BME280;20617;49.476;10.986;2022-08-21T02:41:53;98216.34;;;18.86;80.95
12879;BME280;20617;49.476;10.986;2022-08-21T02:43:59;98218.75;;;18.89;80.80
12879;BME280;20617;49.476;10.986;2022-08-21T02:46:08;98218.47;;;18.81;81.30
12879;BME280;20617;49.476;10.986;2022-08-21T02:48:15;98222.81;;;18.82;81.70
12879;BME280;20617;49.476;10.986;2022-08-21T02:50:23;98219.53;;;18.78;82.04
12879;BME280;20617;49.476;10.986;2022-08-21T02:52:28;98224.97;;;18.77;82.04
12879;BME280;20617;49.476;10.986;2022-08-21T02:54:34;98212.59;;;18.77;81.80
12879;BME280;20617;49.476;10.986;2022-08-21T02:56:39;98210.22;;;18.86;81.67
12879;BME280;20617;49.476;10.986;2022-08-21T02:58:47;98209.75;;;18.92;81.51
12879;BME280;20617;49.476;10.986;2022-08-21T03:00:53;98214.91;;;18.93;80.91
12879;BME280;20617;49.476;10.986;2022-08-21T03:03:01;98215.38;;;18.98;80.75
12879;BME280;20617;49.476;10.986;2022-08-21T03:05:08;98215.03;;;19.03;80.75
12879;BME280;20617;49.476;10.986;2022-08-21T03:07:15;98213.00;;;19.07;80.30
12879;BME280;20617;49.476;10.986;2022-08-21T03:09:20;98211.94;;;19.09;80.05
12879;BME280;20617;49.476;10.986;2022-08-21T03:11:25;98208.22;;;19.12;79.76
12879;BME280;20617;49.476;10.986;2022-08-21T03:13:31;98207.38;;;19.11;79.91
12879;BME280;20617;49.476;10.986;2022-08-21T03:15:36;98213.59;;;19.10;80.19
12879;BME280;20617;49.476;10.986;2022-08-21T03:17:41;98216.94;;;19.01;80.35
12879;BME280;20617;49.476;10.986;2022-08-21T03:19:49;98217.28;;;18.96;80.33
12879;BME280;20617;49.476;10.986;2022-08-21T03:21:55;98222.44;;;18.87;80.92
12879;BME280;20617;49.476;10.986;2022-08-21T03:24:00;98227.38;;;18.80;81.24
12879;BME280;20617;49.476;10.986;2022-08-21T03:26:05;98227.06;;;18.72;81.51
12879;BME280;20617;49.476;10.986;2022-08-21T03:28:14;98222.00;;;18.58;82.85
12879;BME280;20617;49.476;10.986;2022-08-21T03:30:21;98226.44;;;18.57;82.69
12879;BME280;20617;49.476;10.986;2022-08-21T03:32:27;98225.56;;;18.45;83.60
12879;BME280;20617;49.476;10.986;2022-08-21T03:34:33;98220.50;;;18.42;83.92
12879;BME280;20617;49.476;10.986;2022-08-21T03:36:41;98224.44;;;18.37;84.41
12879;BME280;20617;49.476;10.986;2022-08-21T03:38:46;98228.66;;;18.39;84.23
12879;BME280;20617;49.476;10.986;2022-08-21T03:40:51;98227.69;;;18.40;84.42
12879;BME280;20617;49.476;10.986;2022-08-21T03:42:55;98226.25;;;18.36;83.88
12879;BME280;20617;49.476;10.986;2022-08-21T03:45:00;98231.38;;;18.38;83.87
12879;BME280;20617;49.476;10.986;2022-08-21T03:47:06;98223.97;;;18.43;83.82
12879;BME280;20617;49.476;10.986;2022-08-21T03:49:11;98231.06;;;18.42;83.17
12879;BME280;20617;49.476;10.986;2022-08-21T03:51:16;98228.38;;;18.31;83.33
12879;BME280;20617;49.476;10.986;2022-08-21T03:53:24;98232.06;;;18.28;83.88
12879;BME280;20617;49.476;10.986;2022-08-21T03:55:29;98244.97;;;18.20;84.24
12879;BME280;20617;49.476;10.986;2022-08-21T03:57:34;98240.88;;;18.16;84.32
12879;BME280;20617;49.476;10.986;2022-08-21T03:59:39;98247.28;;;18.25;84.23
12879;BME280;20617;49.476;10.986;2022-08-21T04:01:52;98240.25;;;18.37;83.90
12879;BME280;20617;49.476;10.986;2022-08-21T04:03:57;98232.97;;;18.40;82.97
12879;BME280;20617;49.476;10.986;2022-08-21T04:06:03;98237.75;;;18.46;82.91
12879;BME280;20617;49.476;10.986;2022-08-21T04:08:08;98241.38;;;18.45;82.14
12879;BME280;20617;49.476;10.986;2022-08-21T04:10:16;98247.56;;;18.33;82.80
12879;BME280;20617;49.476;10.986;2022-08-21T04:12:21;98242.06;;;18.36;82.75
12879;BME280;20617;49.476;10.986;2022-08-21T04:14:26;98237.25;;;18.41;82.79
12879;BME280;20617;49.476;10.986;2022-08-21T04:16:32;98239.09;;;18.52;82.94
12879;BME280;20617;49.476;10.986;2022-08-21T04:18:37;98235.53;;;18.64;82.70
12879;BME280;20617;49.476;10.986;2022-08-21T04:20:43;98245.47;;;18.73;82.13
12879;BME280;20617;49.476;10.986;2022-08-21T04:22:51;98240.66;;;18.78;81.59
12879;BME280;20617;49.476;10.986;2022-08-21T04:24:56;98245.59;;;18.83;81.11
12879;BME280;20617;49.476;10.986;2022-08-21T04:27:04;98244.28;;;18.89;80.80
12879;BME280;20617;49.476;10.986;2022-08-21T04:29:09;98238.88;;;18.90;80.69
12879;BME280;20617;49.476;10.986;2022-08-21T04:31:14;98242.59;;;18.88;80.25
12879;BME280;20617;49.476;10.986;2022-08-21T04:33:21;98249.56;;;18.89;80.52
12879;BME280;20617;49.476;10.986;2022-08-21T04:35:28;98244.78;;;18.94;80.60
12879;BME280;20617;49.476;10.986;2022-08-21T04:37:33;98248.13;;;18.96;80.21
12879;BME280;20617;49.476;10.986;2022-08-21T04:39:43;98253.03;;;18.89;80.88
12879;BME280;20617;49.476;10.986;2022-08-21T04:41:54;98249.41;;;18.79;80.85
12879;BME280;20617;49.476;10.986;2022-08-21T04:44:02;98253.44;;;18.72;81.12
12879;BME280;20617;49.476;10.986;2022-08-21T04:46:07;98259.91;;;18.68;80.90
12879;BME280;20617;49.476;10.986;2022-08-21T04:48:16;98260.75;;;18.68;80.78
12879;BME280;20617;49.476;10.986;2022-08-21T04:50:26;98267.09;;;18.66;80.91
12879;BME280;20617;49.476;10.986;2022-08-21T04:52:38;98266.59;;;18.61;81.81
12879;BME280;20617;49.476;10.986;2022-08-21T04:54:44;98272.91;;;18.58;81.71
12879;BME280;20617;49.476;10.986;2022-08-21T04:56:57;98275.75;;;18.44;82.30
12879;BME280;20617;49.476;10.986;2022-08-21T04:59:13;98276.94;;;18.40;83.30
12879;BME280;20617;49.476;10.986;2022-08-21T05:01:22;98283.88;;;18.41;82.97
12879;BME280;20617;49.476;10.986;2022-08-21T05:03:29;98283.25;;;18.37;83.02
12879;BME280;20617;49.476;10.986;2022-08-21T05:05:35;98289.13;;;18.41;83.62
12879;BME280;20617;49.476;10.986;2022-08-21T05:07:41;98286.50;;;18.41;83.43
12879;BME280;20617;49.476;10.986;2022-08-21T05:09:47;98285.56;;;18.42;83.35
12879;BME280;20617;49.476;10.986;2022-08-21T05:11:52;98285.91;;;18.37;83.79
12879;BME280;20617;49.476;10.986;2022-08-21T05:13:58;98290.50;;;18.46;83.22
12879;BME280;20617;49.476;10.986;2022-08-21T05:16:05;98288.09;;;18.43;83.36
12879;BME280;20617;49.476;10.986;2022-08-21T05:18:10;98285.22;;;18.46;82.84
12879;BME280;20617;49.476;10.986;2022-08-21T05:20:15;98282.81;;;18.43;82.84
12879;BME280;20617;49.476;10.986;2022-08-21T05:22:22;98296.81;;;18.44;82.91
12879;BME280;20617;49.476;10.986;2022-08-21T05:24:27;98294.31;;;18.42;83.63
12879;BME280;20617;49.476;10.986;2022-08-21T05:26:33;98298.13;;;18.38;83.85
12879;BME280;20617;49.476;10.986;2022-08-21T05:28:46;98295.88;;;18.45;83.79
12879;BME280;20617;49.476;10.986;2022-08-21T05:30:51;98294.53;;;18.39;83.94
12879;BME280;20617;49.476;10.986;2022-08-21T05:33:00;98294.41;;;18.41;84.52
12879;BME280;20617;49.476;10.986;2022-08-21T05:35:06;98297.63;;;18.57;83.53
12879;BME280;20617;49.476;10.986;2022-08-21T05:37:11;98288.69;;;18.71;82.29
12879;BME280;20617;49.476;10.986;2022-08-21T05:39:17;98291.81;;;18.76;81.28
12879;BME280;20617;49.476;10.986;2022-08-21T05:41:21;98290.44;;;18.83;81.40
12879;BME280;20617;49.476;10.986;2022-08-21T05:43:27;98294.91;;;18.94;80.98
12879;BME280;20617;49.476;10.986;2022-08-21T05:45:32;98294.06;;;19.05;80.80
12879;BME280;20617;49.476;10.986;2022-08-21T05:47:44;98295.75;;;19.06;79.42
12879;BME280;20617;49.476;10.986;2022-08-21T05:49:52;98287.72;;;19.07;79.43
12879;BME280;20617;49.476;10.986;2022-08-21T05:51:57;98293.97;;;19.06;79.72
12879;BME280;20617;49.476;10.986;2022-08-21T05:54:02;98296.22;;;18.99;79.93
12879;BME280;20617;49.476;10.986;2022-08-21T05:56:07;98292.03;;;18.97;79.88
12879;BME280;20617;49.476;10.986;2022-08-21T05:58:13;98297.06;;;19.00;80.17
12879;BME280;20617;49.476;10.986;2022-08-21T06:00:18;98303.19;;;19.00;79.70
12879;BME280;20617;49.476;10.986;2022-08-21T06:02:24;98294.44;;;19.00;79.93
12879;BME280;20617;49.476;10.986;2022-08-21T06:04:29;98297.53;;;19.05;80.17
12879;BME280;20617;49.476;10.986;2022-08-21T06:06:37;98296.50;;;19.19;79.60
12879;BME280;20617;49.476;10.986;2022-08-21T06:08:42;98296.75;;;19.27;79.38
12879;BME280;20617;49.476;10.986;2022-08-21T06:10:47;98299.16;;;19.30;79.02
12879;BME280;20617;49.476;10.986;2022-08-21T06:12:53;98299.25;;;19.40;79.25
12879;BME280;20617;49.476;10.986;2022-08-21T06:14:58;98297.47;;;19.52;79.34
12879;BME280;20617;49.476;10.986;2022-08-21T06:17:04;98297.63;;;19.61;79.00
12879;BME280;20617;49.476;10.986;2022-08-21T06:19:09;98299.53;;;19.59;78.38
12879;BME280;20617;49.476;10.986;2022-08-21T06:21:14;98304.56;;;19.51;78.55
12879;BME280;20617;49.476;10.986;2022-08-21T06:23:21;98307.34;;;19.50;78.09
12879;BME280;20617;49.476;10.986;2022-08-21T06:25:35;98300.97;;;19.52;77.65
12879;BME280;20617;49.476;10.986;2022-08-21T06:27:40;98306.34;;;19.51;77.37
12879;BME280;20617;49.476;10.986;2022-08-21T06:29:44;98308.75;;;19.54;77.18
12879;BME280;20617;49.476;10.986;2022-08-21T06:31:50;98303.72;;;19.62;77.24
12879;BME280;20617;49.476;10.986;2022-08-21T06:33:56;98309.84;;;19.62;76.56
12879;BME280;20617;49.476;10.986;2022-08-21T06:36:02;98314.09;;;19.65;76.00
12879;BME280;20617;49.476;10.986;2022-08-21T06:38:07;98316.91;;;19.51;76.31
12879;BME280;20617;49.476;10.986;2022-08-21T06:40:15;98314.28;;;19.51;76.38
12879;BME280;20617;49.476;10.986;2022-08-21T06:42:23;98319.91;;;19.57;76.89
12879;BME280;20617;49.476;10.986;2022-08-21T06:44:29;98317.66;;;19.53;76.45
12879;BME280;20617;49.476;10.986;2022-08-21T06:46:34;98315.13;;;19.51;76.44
12879;BME280;20617;49.476;10.986;2022-08-21T06:48:39;98316.81;;;19.52;76.58
12879;BME280;20617;49.476;10.986;2022-08-21T06:50:44;98323.03;;;19.51;76.23
12879;BME280;20617;49.476;10.986;2022-08-21T06:52:49;98326.06;;;19.47;76.30
12879;BME280;20617;49.476;10.986;2022-08-21T06:54:54;98321.38;;;19.50;76.63
12879;BME280;20617;49.476;10.986;2022-08-21T06:57:02;98322.44;;;19.48;76.59
12879;BME280;20617;49.476;10.986;2022-08-21T06:59:07;98323.88;;;19.52;76.52
12879;BME280;20617;49.476;10.986;2022-08-21T07:01:12;98325.66;;;19.40;75.84
12879;BME280;20617;49.476;10.986;2022-08-21T07:03:19;98327.22;;;19.31;76.71
12879;BME280;20617;49.476;10.986;2022-08-21T07:05:27;98328.53;;;19.26;76.99
12879;BME280;20617;49.476;10.986;2022-08-21T07:07:32;98329.25;;;19.28;77.25
12879;BME280;20617;49.476;10.986;2022-08-21T07:09:37;98329.00;;;19.19;77.53
12879;BME280;20617;49.476;10.986;2022-08-21T07:11:43;98327.19;;;19.09;77.52
12879;BME280;20617;49.476;10.986;2022-08-21T07:13:52;98322.88;;;19.19;77.68
12879;BME280;20617;49.476;10.986;2022-08-21T07:15:58;98318.69;;;19.28;77.67
12879;BME280;20617;49.476;10.986;2022-08-21T07:18:05;98329.50;;;19.36;77.52
12879;BME280;20617;49.476;10.986;2022-08-21T07:20:10;98325.56;;;19.53;76.39
12879;BME280;20617;49.476;10.986;2022-08-21T07:22:16;98328.84;;;19.67;75.94
12879;BME280;20617;49.476;10.986;2022-08-21T07:24:23;98326.81;;;19.82;75.58
12879;BME280;20617;49.476;10.986;2022-08-21T07:26:28;98324.75;;;19.97;74.63
12879;BME280;20617;49.476;10.986;2022-08-21T07:28:32;98330.16;;;19.96;74.49
12879;BME280;20617;49.476;10.986;2022-08-21T07:30:40;98327.53;;;19.96;74.65
12879;BME280;20617;49.476;10.986;2022-08-21T07:32:45;98321.13;;;19.98;74.44
12879;BME280;20617;49.476;10.986;2022-08-21T07:34:51;98326.03;;;20.14;74.20
12879;BME280;20617;49.476;10.986;2022-08-21T07:36:56;98327.34;;;20.31;74.05
12879;BME280;20617;49.476;10.986;2022-08-21T07:39:10;98330.44;;;20.36;72.74
12879;BME280;20617;49.476;10.986;2022-08-21T07:41:17;98328.91;;;20.33;72.80
12879;BME280;20617;49.476;10.986;2022-08-21T07:43:25;98327.13;;;20.23;73.28
12879;BME280;20617;49.476;10.986;2022-08-21T07:45:30;98325.56;;;20.09;74.13
12879;BME280;20617;49.476;10.986;2022-08-21T07:47:38;98318.72;;;20.06;74.46
12879;BME280;20617;49.476;10.986;2022-08-21T07:49:43;98326.03;;;20.14;74.50
12879;BME280;20617;49.476;10.986;2022-08-21T07:51:48;98322.66;;;20.23;74.26
12879;BME280;20617;49.476;10.986;2022-08-21T07:53:55;98317.47;;;20.33;73.28
12879;BME280;20617;49.476;10.986;2022-08-21T07:56:01;98318.41;;;20.43;73.13
12879;BME280;20617;49.476;10.986;2022-08-21T07:58:06;98319.69;;;20.17;74.20
12879;BME280;20617;49.476;10.986;2022-08-21T08:00:14;98313.97;;;20.32;73.60
12879;BME280;20617;49.476;10.986;2022-08-21T08:02:24;98313.34;;;20.51;72.91
12879;BME280;20617;49.476;10.986;2022-08-21T08:04:32;98314.03;;;20.65;71.95
12879;BME280;20617;49.476;10.986;2022-08-21T08:06:36;98311.84;;;20.70;71.42
12879;BME280;20617;49.476;10.986;2022-08-21T08:08:42;98316.38;;;20.79;71.38
12879;BME280;20617;49.476;10.986;2022-08-21T08:10:47;98317.47;;;20.76;70.57
12879;BME280;20617;49.476;10.986;2022-08-21T08:12:52;98317.47;;;20.76;70.68
12879;BME280;20617;49.476;10.986;2022-08-21T08:15:00;98311.34;;;20.76;70.92
12879;BME280;20617;49.476;10.986;2022-08-21T08:17:05;98306.03;;;20.76;70.60
12879;BME280;20617;49.476;10.986;2022-08-21T08:19:11;98310.81;;;20.82;70.37
12879;BME280;20617;49.476;10.986;2022-08-21T08:21:19;98310.56;;;20.85;70.35
12879;BME280;20617;49.476;10.986;2022-08-21T08:23:27;98311.03;;;20.90;70.65
12879;BME280;20617;49.476;10.986;2022-08-21T08:25:32;98312.31;;;20.75;71.11
12879;BME280;20617;49.476;10.986;2022-08-21T08:27:38;98311.34;;;20.76;71.11
12879;BME280;20617;49.476;10.986;2022-08-21T08:29:44;98307.34;;;20.82;71.16
12879;BME280;20617;49.476;10.986;2022-08-21T08:31:50;98305.53;;;20.82;70.69
12879;BME280;20617;49.476;10.986;2022-08-21T08:33:55;98300.59;;;20.89;71.04
12879;BME280;20617;49.476;10.986;2022-08-21T08:36:00;98296.31;;;20.97;70.24
12879;BME280;20617;49.476;10.986;2022-08-21T08:38:12;98293.72;;;21.07;69.52
12879;BME280;20617;49.476;10.986;2022-08-21T08:40:25;98294.41;;;21.30;69.41
12879;BME280;20617;49.476;10.986;2022-08-21T08:42:36;98287.56;;;21.48;68.68
12879;BME280;20617;49.476;10.986;2022-08-21T08:44:41;98286.38;;;21.62;67.46
12879;BME280;20617;49.476;10.986;2022-08-21T08:46:48;98288.66;;;21.77;67.59
12879;BME280;20617;49.476;10.986;2022-08-21T08:49:01;98290.53;;;21.96;66.43
12879;BME280;20617;49.476;10.986;2022-08-21T08:51:15;98297.81;;;22.03;66.03
12879;BME280;20617;49.476;10.986;2022-08-21T08:53:30;98284.03;;;22.19;66.00
12879;BME280;20617;49.476;10.986;2022-08-21T08:55:41;98289.03;;;22.12;65.13
12879;BME280;20617;49.476;10.986;2022-08-21T08:57:48;98294.06;;;22.15;64.91
12879;BME280;20617;49.476;10.986;2022-08-21T08:59:58;98292.25;;;22.16;64.78
12879;BME280;20617;49.476;10.986;2022-08-21T09:02:04;98294.25;;;21.83;65.40
12879;BME280;20617;49.476;10.986;2022-08-21T09:04:10;98297.06;;;21.82;66.01
12879;BME280;20617;49.476;10.986;2022-08-21T09:06:26;98302.66;;;21.88;65.62
12879;BME280;20617;49.476;10.986;2022-08-21T09:08:45;98299.47;;;21.95;65.34
12879;BME280;20617;49.476;10.986;2022-08-21T09:11:00;98300.31;;;22.05;64.86
12879;BME280;20617;49.476;10.986;2022-08-21T09:13:11;98301.44;;;22.12;64.54
12879;BME280;20617;49.476;10.986;2022-08-21T09:15:25;98291.75;;;22.32;64.46
12879;BME280;20617;49.476;10.986;2022-08-21T09:17:39;98288.81;;;22.45;63.69
12879;BME280;20617;49.476;10.986;2022-08-21T09:19:58;98287.16;;;22.53;63.68
12879;BME280;20617;49.476;10.986;2022-08-21T09:22:09;98284.63;;;22.71;62.98
12879;BME280;20617;49.476;10.986;2022-08-21T09:24:29;98279.91;;;22.75;62.33
12879;BME280;20617;49.476;10.986;2022-08-21T09:26:47;98289.38;;;22.87;61.86
12879;BME280;20617;49.476;10.986;2022-08-21T09:28:58;98286.03;;;22.95;61.94
12879;BME280;20617;49.476;10.986;2022-08-21T09:31:07;98286.28;;;23.11;61.54
12879;BME280;20617;49.476;10.986;2022-08-21T09:33:12;98284.19;;;23.24;61.04
12879;BME280;20617;49.476;10.986;2022-08-21T09:35:21;98279.06;;;23.41;60.22
12879;BME280;20617;49.476;10.986;2022-08-21T09:37:27;98277.25;;;23.51;59.65
12879;BME280;20617;49.476;10.986;2022-08-21T09:39:38;98271.88;;;23.61;59.69
12879;BME280;20617;49.476;10.986;2022-08-21T09:41:55;98279.63;;;23.82;59.69
12879;BME280;20617;49.476;10.986;2022-08-21T09:44:01;98278.59;;;23.92;58.82
12879;BME280;20617;49.476;10.986;2022-08-21T09:46:09;98276.66;;;23.94;58.02
12879;BME280;20617;49.476;10.986;2022-08-21T09:48:18;98274.63;;;23.79;58.85
12879;BME280;20617;49.476;10.986;2022-08-21T09:50:27;98275.00;;;23.56;58.99
12879;BME280;20617;49.476;10.986;2022-08-21T09:52:32;98264.66;;;23.43;59.51
12879;BME280;20617;49.476;10.986;2022-08-21T09:54:40;98259.34;;;23.43;59.62
12879;BME280;20617;49.476;10.986;2022-08-21T09:56:54;98260.66;;;23.39;59.61
12879;BME280;20617;49.476;10.986;2022-08-21T09:59:18;98259.41;;;23.34;59.66
12879;BME280;20617;49.476;10.986;2022-08-21T10:01:25;98259.97;;;23.27;60.03
12879;BME280;20617;49.476;10.986;2022-08-21T10:03:30;98265.47;;;23.16;59.84
12879;BME280;20617;49.476;10.986;2022-08-21T10:05:35;98260.16;;;23.07;59.78
12879;BME280;20617;49.476;10.986;2022-08-21T10:07:41;98262.25;;;22.93;60.69
12879;BME280;20617;49.476;10.986;2022-08-21T10:09:58;98262.00;;;22.96;60.47
12879;BME280;20617;49.476;10.986;2022-08-21T10:12:13;98261.72;;;22.99;60.34
12879;BME280;20617;49.476;10.986;2022-08-21T10:14:36;98250.97;;;23.01;60.05
12879;BME280;20617;49.476;10.986;2022-08-21T10:16:59;98253.47;;;22.83;60.80
12879;BME280;20617;49.476;10.986;2022-08-21T10:19:16;98247.22;;;22.65;61.02
12879;BME280;20617;49.476;10.986;2022-08-21T10:21:28;98251.97;;;22.61;60.77
12879;BME280;20617;49.476;10.986;2022-08-21T10:23:44;98251.13;;;22.70;60.46
12879;BME280;20617;49.476;10.986;2022-08-21T10:26:00;98256.84;;;22.75;60.34
12879;BME280;20617;49.476;10.986;2022-08-21T10:28:21;98260.91;;;22.70;60.67
12879;BME280;20617;49.476;10.986;2022-08-21T10:30:36;98257.97;;;22.73;60.32
12879;BME280;20617;49.476;10.986;2022-08-21T10:32:55;98258.94;;;22.81;59.83
12879;BME280;20617;49.476;10.986;2022-08-21T10:35:09;98256.00;;;22.85;60.37
12879;BME280;20617;49.476;10.986;2022-08-21T10:37:42;98257.41;;;22.98;59.90
12879;BME280;20617;49.476;10.986;2022-08-21T10:39:57;98253.88;;;23.08;59.78
12879;BME280;20617;49.476;10.986;2022-08-21T10:42:31;98253.72;;;23.19;59.83
12879;BME280;20617;49.476;10.986;2022-08-21T10:44:49;98246.13;;;23.34;59.30
12879;BME280;20617;49.476;10.986;2022-08-21T10:47:03;98243.22;;;23.17;58.97
12879;BME280;20617;49.476;10.986;2022-08-21T10:49:17;98239.44;;;23.20;58.50
12879;BME280;20617;49.476;10.986;2022-08-21T10:51:32;98241.09;;;23.31;59.10
12879;BME280;20617;49.476;10.986;2022-08-21T10:53:50;98242.28;;;23.09;59.03
12879;BME280;20617;49.476;10.986;2022-08-21T10:56:08;98246.72;;;23.18;59.22
12879;BME280;20617;49.476;10.986;2022-08-21T10:58:25;98236.50;;;23.23;59.18
12879;BME280;20617;49.476;10.986;2022-08-21T11:00:35;98234.97;;;23.20;60.02
12879;BME280;20617;49.476;10.986;2022-08-21T11:02:49;98227.94;;;23.29;60.09
12879;BME280;20617;49.476;10.986;2022-08-21T11:05:01;98234.75;;;23.41;58.99
12879;BME280;20617;49.476;10.986;2022-08-21T11:07:12;98228.41;;;23.52;59.69
12879;BME280;20617;49.476;10.986;2022-08-21T11:09:24;98231.19;;;23.60;59.10